Time;durP1;ratioP1;P1;durP2;ratioP2;P2;SDS_P1;SDS_P2;PMS_P1;PMS_P2;Temp;Humidity;BMP_temperature;BMP_pressure;BME280_temperature;BME280_humidity;BME280_pressure;Samples;Min_cycle;Max_cycle;Signal;HPM_P1;HPM_P2
2023/12/13 00:02:16;;;;;;;30.08;27.17;;;;;;;4.28;78.85;94710.13;5097956;28;20200;-69
2023/12/13 00:04:43;;;;;;;31.52;28.42;;;;;;;4.28;78.63;94714.78;5096641;28;20244;-69
2023/12/13 00:07:10;;;;;;;31.75;28.75;;;;;;;4.25;78.51;94704.53;5080253;28;20216;-69
2023/12/13 00:09:38;;;;;;;36.72;33.13;;;;;;;4.24;78.80;94692.00;5080637;28;20196;-69
2023/12/13 00:12:05;;;;;;;37.78;33.97;;;;;;;4.22;78.18;94692.34;5080041;28;20212;-69
2023/12/13 00:14:32;;;;;;;37.90;33.97;;;;;;;4.18;78.41;94710.47;5072870;28;20221;-69
2023/12/13 00:17:00;;;;;;;36.08;32.60;;;;;;;4.21;78.52;94719.94;5076702;28;20235;-68
2023/12/13 00:19:27;;;;;;;37.65;33.78;;;;;;;4.26;78.55;94708.88;5060155;28;20258;-68
2023/12/13 00:21:54;;;;;;;40.50;36.65;;;;;;;4.31;78.90;94716.88;5077405;28;20246;-68
2023/12/13 00:24:21;;;;;;;44.30;39.72;;;;;;;4.33;79.20;94714.66;5060266;28;20234;-68
2023/12/13 00:26:50;;;;;;;47.15;42.33;;;;;;;4.31;78.70;94706.75;5077109;28;20556;-68
2023/12/13 00:29:17;;;;;;;48.13;42.88;;;;;;;4.32;79.28;94702.09;5060032;28;20201;-68
2023/12/13 00:31:44;;;;;;;49.10;44.00;;;;;;;4.29;78.72;94700.03;5059853;28;20247;-68
2023/12/13 00:34:12;;;;;;;47.83;42.72;;;;;;;4.26;79.06;94698.75;5059813;28;20205;-68
2023/12/13 00:36:39;;;;;;;47.63;42.92;;;;;;;4.22;78.42;94689.59;5060324;28;20201;-68
2023/12/13 00:39:06;;;;;;;48.75;43.80;;;;;;;4.18;78.85;94691.38;5076432;28;20196;-69
2023/12/13 00:41:33;;;;;;;48.25;43.25;;;;;;;4.16;79.02;94688.16;5076082;28;20197;-69
2023/12/13 00:44:03;;;;;;;48.45;43.28;;;;;;;4.19;79.01;94687.50;5060074;28;20224;-68
2023/12/13 00:46:30;;;;;;;46.17;41.42;;;;;;;4.24;79.25;94690.06;5059404;28;20609;-68
2023/12/13 00:48:57;;;;;;;43.20;38.95;;;;;;;4.29;79.59;94680.94;5058635;28;20193;-69
2023/12/13 00:51:25;;;;;;;43.97;39.35;;;;;;;4.34;79.87;94678.81;5075560;28;20628;-69
2023/12/13 00:53:52;;;;;;;45.72;41.03;;;;;;;4.43;79.94;94680.72;5076150;28;20201;-69
2023/12/13 00:56:22;;;;;;;44.15;39.75;;;;;;;4.41;79.53;94675.59;5059736;28;20254;-69
2023/12/13 00:58:48;;;;;;;43.90;39.50;;;;;;;4.36;78.91;94662.13;5076387;28;20205;-68
2023/12/13 01:01:18;;;;;;;45.38;40.65;;;;;;;4.38;78.93;94656.34;5075877;28;20205;-68
2023/12/13 01:03:45;;;;;;;44.33;39.75;;;;;;;4.37;78.70;94649.28;5075787;28;20311;-68
2023/12/13 01:06:12;;;;;;;41.45;37.38;;;;;;;4.31;79.06;94648.63;5076955;28;20185;-68
2023/12/13 01:08:40;;;;;;;43.28;38.85;;;;;;;4.25;78.91;94650.75;5058861;28;20193;-68
2023/12/13 01:11:09;;;;;;;41.53;37.13;;;;;;;4.29;79.58;94643.50;5075225;28;20246;-68
2023/12/13 01:13:36;;;;;;;41.20;36.80;;;;;;;4.31;79.96;94641.25;5075706;28;20204;-68
2023/12/13 01:16:05;;;;;;;41.25;37.22;;;;;;;4.30;79.51;94627.94;5092720;28;20610;-68
2023/12/13 01:18:32;;;;;;;41.60;37.55;;;;;;;4.33;79.61;94630.81;5096680;28;20200;-68
2023/12/13 01:20:59;;;;;;;41.58;37.42;;;;;;;4.28;79.38;94617.31;5078490;28;20225;-68
2023/12/13 01:23:27;;;;;;;42.75;38.33;;;;;;;4.25;79.60;94617.19;5078566;28;20196;-68
2023/12/13 01:25:55;;;;;;;40.88;36.70;;;;;;;4.29;79.40;94615.41;5079018;28;20519;-68
2023/12/13 01:28:22;;;;;;;41.17;36.88;;;;;;;4.29;79.56;94615.41;5095730;28;20620;-69
2023/12/13 01:30:49;;;;;;;41.75;37.65;;;;;;;4.29;79.77;94627.13;5098171;28;20225;-69
2023/12/13 01:33:16;;;;;;;41.50;37.25;;;;;;;4.30;79.57;94617.81;5098701;28;20203;-69
2023/12/13 01:35:43;;;;;;;41.10;36.92;;;;;;;4.31;80.44;94633.06;5081547;28;20257;-69
2023/12/13 01:38:11;;;;;;;39.55;35.60;;;;;;;4.32;80.22;94639.31;5079020;28;20237;-69
2023/12/13 01:40:38;;;;;;;42.13;37.83;;;;;;;4.30;80.28;94636.91;5095235;28;20616;-69
2023/12/13 01:43:06;;;;;;;42.35;38.08;;;;;;;4.31;79.83;94643.16;5095871;28;20196;-69
2023/12/13 01:45:33;;;;;;;40.83;36.72;;;;;;;4.32;80.22;94642.88;5095024;28;20659;-69
2023/12/13 01:48:00;;;;;;;42.50;38.13;;;;;;;4.37;80.32;94627.44;5095929;28;20216;-69
2023/12/13 01:50:27;;;;;;;40.13;35.97;;;;;;;4.39;80.13;94619.72;5095216;28;20579;-69
2023/12/13 01:52:55;;;;;;;40.50;36.55;;;;;;;4.43;80.02;94612.47;5095694;28;20181;-69
2023/12/13 01:55:23;;;;;;;40.83;36.65;;;;;;;4.45;79.87;94610.22;5078230;28;20200;-69
2023/12/13 01:57:50;;;;;;;38.70;34.70;;;;;;;4.44;79.97;94603.16;5078775;28;20303;-69
2023/12/13 02:00:19;;;;;;;39.65;35.78;;;;;;;4.44;79.96;94608.63;5078614;28;20254;-69
2023/12/13 02:02:47;;;;;;;39.45;35.47;;;;;;;4.41;79.55;94598.34;5078127;28;20249;-69
2023/12/13 02:05:15;;;;;;;41.33;37.08;;;;;;;4.34;79.60;94591.44;5077891;28;20212;-69
2023/12/13 02:07:42;;;;;;;41.65;37.38;;;;;;;4.33;79.73;94580.88;5077960;28;20235;-69
2023/12/13 02:10:10;;;;;;;39.80;35.85;;;;;;;4.35;80.13;94582.13;5077782;28;20193;-69
2023/12/13 02:12:40;;;;;;;40.22;36.22;;;;;;;4.38;79.90;94567.03;5077776;28;20213;-69
2023/12/13 02:15:08;;;;;;;39.03;35.30;;;;;;;4.40;79.93;94562.06;5092439;28;20232;-69
2023/12/13 02:17:36;;;;;;;37.78;34.10;;;;;;;4.42;80.26;94559.78;5077468;28;20290;-69
2023/12/13 02:20:06;;;;;;;37.05;33.35;;;;;;;4.40;80.12;94545.69;5095293;28;20549;-69
2023/12/13 02:22:35;;;;;;;36.92;33.33;;;;;;;4.42;79.90;94561.72;5094817;28;20211;-69
2023/12/13 02:25:05;;;;;;;37.75;33.92;;;;;;;4.42;80.19;94578.91;5077528;28;20212;-69
2023/12/13 02:27:32;;;;;;;37.67;33.70;;;;;;;4.41;80.05;94577.31;5095023;28;20204;-69
2023/12/13 02:30:00;;;;;;;37.75;33.83;;;;;;;4.46;80.33;94579.06;5094354;28;20258;-69
2023/12/13 02:32:27;;;;;;;39.53;35.67;;;;;;;4.48;80.66;94574.88;5094775;28;20193;-69
2023/12/13 02:34:54;;;;;;;40.40;36.42;;;;;;;4.49;80.25;94567.47;5077984;28;20270;-70
2023/12/13 02:37:21;;;;;;;41.08;37.25;;;;;;;4.41;80.09;94565.59;5077626;28;20239;-69
2023/12/13 02:39:49;;;;;;;37.03;33.47;;;;;;;4.33;80.02;94542.66;5078029;28;20200;-69
2023/12/13 02:42:17;;;;;;;35.10;31.65;;;;;;;4.33;80.28;94526.25;5094346;28;20200;-69
2023/12/13 02:44:44;;;;;;;33.65;30.50;;;;;;;4.32;79.96;94524.63;5095210;28;20196;-69
2023/12/13 02:47:11;;;;;;;33.03;30.00;;;;;;;4.30;79.93;94546.03;5094473;28;20204;-69
2023/12/13 02:49:38;;;;;;;32.92;29.75;;;;;;;4.32;80.22;94551.94;5094041;28;20620;-68
2023/12/13 02:52:06;;;;;;;34.72;31.23;;;;;;;4.31;79.94;94553.06;5078037;28;20192;-68
2023/12/13 02:54:32;;;;;;;34.22;30.95;;;;;;;4.34;80.61;94553.22;5094759;28;20257;-69
2023/12/13 02:57:01;;;;;;;38.95;35.10;;;;;;;4.39;80.44;94554.19;5094282;28;20192;-69
2023/12/13 02:59:28;;;;;;;36.15;32.65;;;;;;;4.42;80.41;94546.13;5078418;28;20192;-69
2023/12/13 03:01:55;;;;;;;37.05;33.42;;;;;;;4.49;81.01;94556.56;5078359;28;20222;-69
2023/12/13 03:04:23;;;;;;;39.80;35.80;;;;;;;4.53;80.62;94550.09;5077581;28;20619;-69
2023/12/13 03:06:50;;;;;;;38.60;34.78;;;;;;;4.55;80.32;94545.13;5077904;28;20200;-69
2023/12/13 03:09:17;;;;;;;44.53;39.92;;;;;;;4.59;80.49;94550.75;5077283;28;20250;-69
2023/12/13 03:11:44;;;;;;;41.63;37.15;;;;;;;4.51;80.30;94536.00;5077601;28;20200;-69
2023/12/13 03:14:12;;;;;;;35.13;31.52;;;;;;;4.51;80.31;94541.47;5080368;28;20204;-69
2023/12/13 03:16:39;;;;;;;33.42;30.13;;;;;;;4.53;80.40;94546.56;5098601;28;20188;-70
2023/12/13 03:19:07;;;;;;;31.33;28.10;;;;;;;4.54;80.21;94562.66;5081132;28;20238;-69
2023/12/13 03:21:34;;;;;;;30.65;27.65;;;;;;;4.51;79.98;94555.13;5080828;28;20189;-69
2023/12/13 03:24:01;;;;;;;30.02;27.20;;;;;;;4.52;79.97;94561.38;5098349;28;20200;-69
2023/12/13 03:26:28;;;;;;;30.75;27.83;;;;;;;4.53;80.35;94576.63;5081103;28;20273;-69
2023/12/13 03:28:55;;;;;;;29.83;26.98;;;;;;;4.52;80.29;94575.03;5098594;28;20181;-69
2023/12/13 03:31:23;;;;;;;29.02;26.20;;;;;;;4.53;80.44;94565.69;5098050;28;20250;-69
2023/12/13 03:33:50;;;;;;;27.65;24.75;;;;;;;4.52;79.97;94551.25;5098235;28;20188;-69
2023/12/13 03:36:19;;;;;;;27.08;24.48;;;;;;;4.51;79.87;94559.78;5081016;28;20266;-69
2023/12/13 03:38:46;;;;;;;29.48;26.58;;;;;;;4.50;80.13;94555.41;5098206;28;20196;-69
2023/12/13 03:41:13;;;;;;;26.85;24.05;;;;;;;4.51;80.26;94548.84;5097859;28;20212;-69
2023/12/13 03:43:40;;;;;;;25.80;23.48;;;;;;;4.52;80.05;94559.44;5080282;28;20200;-69
2023/12/13 03:46:08;;;;;;;27.23;24.63;;;;;;;4.53;80.18;94573.88;5097563;28;20281;-69
2023/12/13 03:48:36;;;;;;;29.75;26.65;;;;;;;4.54;80.10;94583.72;5098549;28;20200;-69
2023/12/13 03:51:04;;;;;;;29.15;26.27;;;;;;;4.51;80.17;94576.16;5097099;28;20200;-69
2023/12/13 03:53:31;;;;;;;28.90;25.98;;;;;;;4.51;79.91;94560.56;5080618;28;20209;-69
2023/12/13 03:56:00;;;;;;;28.45;25.75;;;;;;;4.53;80.28;94555.56;5080645;28;20231;-69
2023/12/13 03:58:27;;;;;;;29.77;26.88;;;;;;;4.50;80.00;94549.97;5097075;28;20636;-68
2023/12/13 04:00:54;;;;;;;30.90;27.70;;;;;;;4.49;80.69;94551.88;5080723;28;20208;-69
2023/12/13 04:03:20;;;;;;;33.45;29.73;;;;;;;4.50;80.76;94539.03;5097639;28;20201;-70
2023/12/13 04:05:49;;;;;;;30.65;27.38;;;;;;;4.43;80.08;94560.59;5079890;28;20219;-69
2023/12/13 04:08:16;;;;;;;31.58;28.23;;;;;;;4.42;80.52;94537.16;5080699;28;20273;-69
2023/12/13 04:10:43;;;;;;;29.25;26.15;;;;;;;4.45;80.89;94545.47;5097557;28;20616;-69
2023/12/13 04:13:10;;;;;;;27.90;25.10;;;;;;;4.44;80.59;94532.16;5096621;28;20262;-69
2023/12/13 04:15:37;;;;;;;27.23;24.55;;;;;;;4.48;80.79;94519.47;5078186;28;20231;-69
2023/12/13 04:18:05;;;;;;;25.40;23.00;;;;;;;4.52;80.77;94534.06;5080335;28;20207;-69
2023/12/13 04:20:31;;;;;;;28.48;25.67;;;;;;;4.59;80.71;94531.63;5080187;28;20196;-69
2023/12/13 04:23:00;;;;;;;27.23;24.52;;;;;;;4.62;80.33;94513.78;5081110;28;20200;-69
2023/12/13 04:25:27;;;;;;;27.80;25.23;;;;;;;4.58;80.22;94516.38;5096254;28;20236;-69
2023/12/13 04:27:54;;;;;;;30.75;27.73;;;;;;;4.56;80.44;94502.22;5080310;28;20253;-69
2023/12/13 04:30:21;;;;;;;33.33;30.05;;;;;;;4.56;79.99;94499.50;5079729;28;20197;-69
2023/12/13 04:32:48;;;;;;;34.08;30.67;;;;;;;4.55;80.19;94497.91;5096134;28;20200;-69
2023/12/13 04:35:15;;;;;;;35.13;31.58;;;;;;;4.52;80.19;94499.34;5096197;28;20222;-69
2023/12/13 04:37:42;;;;;;;36.85;33.25;;;;;;;4.52;80.65;94504.03;5080686;28;20200;-69
2023/12/13 04:40:11;;;;;;;37.58;33.72;;;;;;;4.51;80.31;94502.44;5096715;28;20184;-69
2023/12/13 04:42:38;;;;;;;39.20;35.20;;;;;;;4.51;80.41;94486.03;5096649;28;20257;-69
2023/12/13 04:45:05;;;;;;;41.70;37.47;;;;;;;4.54;80.54;94499.84;5079943;28;20269;-69
2023/12/13 04:47:32;;;;;;;42.95;38.65;;;;;;;4.54;80.14;94504.50;5079915;28;20563;-68
2023/12/13 04:50:00;;;;;;;43.35;38.88;;;;;;;4.49;80.16;94494.53;5096479;28;20261;-69
2023/12/13 04:52:27;;;;;;;43.22;38.92;;;;;;;4.47;80.34;94491.34;5097038;28;20196;-70
2023/12/13 04:54:54;;;;;;;42.45;38.20;;;;;;;4.44;80.55;94497.47;5080095;28;20201;-70
2023/12/13 04:57:22;;;;;;;44.50;40.17;;;;;;;4.44;80.92;94493.94;5096498;28;20200;-70
2023/12/13 04:59:52;;;;;;;42.28;38.13;;;;;;;4.42;80.60;94477.06;5080167;28;20211;-69
2023/12/13 05:02:19;;;;;;;41.17;37.17;;;;;;;4.43;80.97;94484.13;5097025;28;20287;-70
2023/12/13 05:04:46;;;;;;;47.38;42.75;;;;;;;4.43;81.04;94478.66;5078942;28;20591;-72
2023/12/13 05:07:13;;;;;;;43.38;39.00;;;;;;;4.41;80.90;94491.88;5079925;28;20188;-71
2023/12/13 05:09:40;;;;;;;43.42;39.10;;;;;;;4.34;80.75;94481.44;5096404;28;20296;-72
2023/12/13 05:12:08;;;;;;;43.75;39.25;;;;;;;4.21;80.68;94477.81;5095978;28;20262;-73
2023/12/13 05:14:36;;;;;;;41.50;37.33;;;;;;;4.20;80.59;94475.41;5078352;28;20265;-72
2023/12/13 05:17:04;;;;;;;41.53;37.30;;;;;;;4.20;80.66;94486.31;5095914;28;20631;-72
2023/12/13 05:19:32;;;;;;;41.72;37.47;;;;;;;4.19;81.22;94487.44;5095839;28;20266;-72
2023/12/13 05:22:00;;;;;;;42.90;38.30;;;;;;;4.23;81.81;94486.47;5095961;28;20508;-72
2023/12/13 05:24:27;;;;;;;41.40;37.10;;;;;;;4.29;81.40;94487.91;5095396;28;20204;-72
2023/12/13 05:26:56;;;;;;;37.40;33.60;;;;;;;4.32;81.22;94478.22;5096113;28;20257;-72
2023/12/13 05:29:23;;;;;;;32.60;29.23;;;;;;;4.35;81.19;94481.09;5095466;28;20204;-72
2023/12/13 05:31:51;;;;;;;31.90;28.80;;;;;;;4.40;81.21;94491.06;5079105;28;20192;-72
2023/12/13 05:34:21;;;;;;;30.25;27.15;;;;;;;4.41;80.87;94481.72;5078397;28;20673;-72
2023/12/13 05:36:48;;;;;;;27.13;24.42;;;;;;;4.41;80.66;94461.81;5077374;28;20242;-72
2023/12/13 05:39:17;;;;;;;27.75;25.10;;;;;;;4.41;80.61;94473.53;5095665;28;20533;-73
2023/12/13 05:41:45;;;;;;;25.55;23.15;;;;;;;4.38;80.58;94482.38;5095223;28;20200;-73
2023/12/13 05:44:14;;;;;;;25.48;23.00;;;;;;;4.42;80.81;94498.91;5095762;28;20196;-73
2023/12/13 05:46:41;;;;;;;26.17;23.55;;;;;;;4.46;80.70;94497.13;5094630;28;20660;-73
2023/12/13 05:49:12;;;;;;;27.00;24.50;;;;;;;4.50;80.24;94501.63;5079135;28;20208;-72
2023/12/13 05:51:42;;;;;;;27.20;24.50;;;;;;;4.51;80.47;94500.50;5095628;28;20208;-72
2023/12/13 05:54:11;;;;;;;27.63;24.92;;;;;;;4.56;80.61;94494.03;5078373;28;20304;-72
2023/12/13 05:56:38;;;;;;;28.92;26.02;;;;;;;4.56;80.19;94496.75;5095060;28;20204;-72
2023/12/13 05:59:04;;;;;;;28.48;25.77;;;;;;;4.59;80.38;94493.38;5078001;28;20200;-72
2023/12/13 06:01:36;;;;;;;28.35;25.63;;;;;;;4.62;80.30;94484.53;5095706;28;20192;-72
2023/12/13 06:04:05;;;;;;;29.33;26.50;;;;;;;4.66;80.39;94462.81;5095589;28;20189;-71
2023/12/13 06:06:37;;;;;;;29.48;26.58;;;;;;;4.66;80.54;94449.97;5078340;28;20223;-71
2023/12/13 06:09:05;;;;;;;29.70;26.90;;;;;;;4.68;80.66;94446.88;5078231;28;20287;-72
2023/12/13 06:11:33;;;;;;;29.80;26.95;;;;;;;4.70;80.52;94458.28;5078077;28;20215;-71
2023/12/13 06:14:02;;;;;;;29.65;26.67;;;;;;;4.70;80.78;94461.81;5077396;28;20222;-71
2023/12/13 06:16:29;;;;;;;32.22;29.05;;;;;;;4.73;80.60;94471.31;5094482;28;20579;-71
2023/12/13 06:18:56;;;;;;;31.10;28.10;;;;;;;4.70;80.62;94470.03;5094798;28;20208;-71
2023/12/13 06:21:23;;;;;;;28.25;25.52;;;;;;;4.75;80.52;94474.47;5078357;28;20200;-71
2023/12/13 06:23:54;;;;;;;28.23;25.27;;;;;;;4.80;80.57;94460.66;5078396;28;20241;-71
2023/12/13 06:26:21;;;;;;;27.35;24.73;;;;;;;4.85;80.11;94446.78;5078188;28;20212;-71
2023/12/13 06:28:49;;;;;;;29.33;26.30;;;;;;;4.85;80.34;94435.84;5077455;28;20249;-71
2023/12/13 06:31:18;;;;;;;29.33;26.60;;;;;;;4.83;80.75;94435.41;5094959;28;20224;-71
2023/12/13 06:33:45;;;;;;;29.35;26.65;;;;;;;4.85;80.78;94449.53;5077413;28;20210;-71
2023/12/13 06:36:14;;;;;;;29.08;26.17;;;;;;;4.89;80.39;94453.19;5077373;28;20228;-71
2023/12/13 06:38:41;;;;;;;30.85;27.55;;;;;;;4.91;80.36;94453.66;5094069;28;20200;-71
2023/12/13 06:41:09;;;;;;;29.00;26.30;;;;;;;4.97;80.59;94454.25;5094765;28;20208;-71
2023/12/13 06:43:38;;;;;;;29.05;26.25;;;;;;;5.02;80.34;94433.00;5094668;28;20192;-72
2023/12/13 06:46:06;;;;;;;29.38;26.63;;;;;;;5.07;80.02;94426.53;5077480;28;20269;-71
2023/12/13 06:48:34;;;;;;;29.20;26.33;;;;;;;5.11;80.09;94429.41;5098087;28;20241;-72
2023/12/13 06:51:01;;;;;;;28.05;25.20;;;;;;;5.15;79.85;94433.06;5099077;28;20196;-71
2023/12/13 06:53:28;;;;;;;29.45;26.65;;;;;;;5.18;80.17;94421.47;5082141;28;20196;-71
2023/12/13 06:55:58;;;;;;;31.27;28.20;;;;;;;5.19;79.86;94417.59;5098121;28;20200;-71
2023/12/13 06:58:34;;;;;;;29.48;26.25;;;;;;;5.24;80.20;94425.59;5082330;28;20180;-71
2023/12/13 07:01:04;;;;;;;27.17;24.60;;;;;;;5.28;80.25;94430.06;5082177;28;20248;-71
2023/12/13 07:03:31;;;;;;;28.58;25.67;;;;;;;5.34;79.85;94430.66;5099200;28;20189;-72
2023/12/13 07:05:58;;;;;;;28.40;25.52;;;;;;;5.34;79.73;94438.03;5082039;28;20208;-72
2023/12/13 07:08:27;;;;;;;29.02;25.48;;;;;;;5.36;80.07;94435.78;5098704;28;20226;-71
2023/12/13 07:10:54;;;;;;;26.17;23.45;;;;;;;5.41;80.04;94427.38;5081851;28;20340;-71
2023/12/13 07:13:23;;;;;;;25.42;22.73;;;;;;;5.46;79.75;94433.44;5098759;28;20567;-71
2023/12/13 07:15:54;;;;;;;26.55;23.95;;;;;;;5.50;79.78;94434.38;5098375;28;20252;-72
2023/12/13 07:18:24;;;;;;;25.38;22.70;;;;;;;5.56;79.19;94440.44;5097974;28;20238;-72
2023/12/13 07:20:56;;;;;;;21.73;19.48;;;;;;;5.61;79.46;94423.00;5080982;28;20204;-72
2023/12/13 07:23:25;;;;;;;29.08;26.20;;;;;;;5.66;79.07;94422.78;5081407;28;20231;-72
2023/12/13 07:25:55;;;;;;;21.98;19.90;;;;;;;5.69;79.30;94411.19;5080901;28;20216;-72
2023/12/13 07:28:22;;;;;;;21.35;19.38;;;;;;;5.75;79.02;94434.47;5080980;28;20536;-72
2023/12/13 07:30:52;;;;;;;20.63;18.52;;;;;;;5.81;78.47;94424.91;5098144;28;20197;-72
2023/12/13 07:33:19;;;;;;;19.77;17.98;;;;;;;5.87;78.05;94420.81;5098011;28;20188;-72
2023/12/13 07:35:49;;;;;;;20.23;18.27;;;;;;;5.90;77.32;94408.38;5097912;28;20197;-72
2023/12/13 07:38:17;;;;;;;19.48;17.58;;;;;;;5.92;77.49;94427.97;5097826;28;20531;-72
2023/12/13 07:40:46;;;;;;;19.45;17.40;;;;;;;5.96;77.02;94409.81;5080377;28;20200;-72
2023/12/13 07:43:14;;;;;;;19.33;17.48;;;;;;;5.98;76.61;94410.25;5097595;28;20192;-72
2023/12/13 07:45:41;;;;;;;19.83;18.02;;;;;;;6.02;76.52;94408.41;5080202;28;20693;-72
2023/12/13 07:48:11;;;;;;;21.08;19.00;;;;;;;6.01;76.08;94393.94;5081224;28;20199;-72
2023/12/13 07:50:38;;;;;;;29.10;26.20;;;;;;;6.01;75.87;94424.06;5081057;28;20192;-72
2023/12/13 07:53:08;;;;;;;24.70;22.40;;;;;;;6.03;75.61;94415.53;5080276;28;20269;-70
2023/12/13 07:55:35;;;;;;;28.98;26.15;;;;;;;6.09;75.77;94430.56;5080725;28;20254;-72
2023/12/13 07:58:04;;;;;;;32.83;29.42;;;;;;;6.15;75.57;94418.25;5081041;28;20509;-71
2023/12/13 08:00:31;;;;;;;33.05;29.80;;;;;;;6.16;75.75;94436.28;5095938;28;20300;-71
2023/12/13 08:02:58;;;;;;;33.97;30.40;;;;;;;6.19;75.25;94432.06;5080964;28;20196;-71
2023/12/13 08:05:27;;;;;;;33.08;29.70;;;;;;;6.21;75.10;94440.75;5080511;28;20200;-72
2023/12/13 08:07:55;;;;;;;32.60;29.52;;;;;;;6.21;74.99;94438.81;5097095;28;20231;-72
2023/12/13 08:10:22;;;;;;;29.63;26.83;;;;;;;6.21;74.73;94449.78;5097107;28;20204;-69
2023/12/13 08:12:49;;;;;;;27.70;25.10;;;;;;;6.24;74.43;94434.56;5097131;28;20265;-71
2023/12/13 08:15:16;;;;;;;25.48;22.88;;;;;;;6.28;74.55;94413.56;5078048;28;20224;-70
2023/12/13 08:17:45;;;;;;;26.23;23.75;;;;;;;6.31;74.99;94403.88;5080892;28;20204;-71
2023/12/13 08:20:13;;;;;;;25.17;22.88;;;;;;;6.31;74.64;94415.63;5097709;28;20581;-71
2023/12/13 08:22:43;;;;;;;31.30;28.38;;;;;;;6.33;74.49;94387.94;5096717;28;20245;-71
2023/12/13 08:25:10;;;;;;;34.63;31.42;;;;;;;6.31;74.72;94396.47;5080458;28;20185;-71
2023/12/13 08:27:38;;;;;;;34.38;31.27;;;;;;;6.29;74.67;94403.44;5096622;28;20216;-70
2023/12/13 08:30:08;;;;;;;27.60;25.20;;;;;;;6.31;74.97;94398.41;5097027;28;20693;-71
2023/12/13 08:32:36;;;;;;;22.30;20.20;;;;;;;6.29;74.96;94406.19;5097597;28;20262;-69
2023/12/13 08:35:07;;;;;;;21.73;19.70;;;;;;;6.31;74.49;94395.66;5079642;28;20192;-70
2023/12/13 08:37:37;;;;;;;21.38;19.35;;;;;;;6.37;74.60;94421.72;5063324;28;20200;-71
2023/12/13 08:40:11;;;;;;;23.00;20.70;;;;;;;6.41;73.80;94420.66;5079550;28;20195;-70
2023/12/13 08:42:38;;;;;;;20.05;18.00;;;;;;;6.44;74.13;94430.16;5096389;28;20633;-70
2023/12/13 08:45:06;;;;;;;18.92;17.17;;;;;;;6.45;73.98;94418.84;5097202;28;20188;-70
2023/12/13 08:47:36;;;;;;;19.25;17.55;;;;;;;6.48;73.70;94422.84;5097075;28;20286;-70
2023/12/13 08:50:03;;;;;;;20.48;18.48;;;;;;;6.53;73.35;94425.34;5096489;28;20216;-71
2023/12/13 08:52:30;;;;;;;22.98;20.88;;;;;;;6.52;73.68;94423.75;5096518;28;20200;-71
2023/12/13 08:54:57;;;;;;;21.58;19.55;;;;;;;6.51;73.18;94431.19;5079416;28;20534;-71
2023/12/13 08:57:26;;;;;;;22.08;19.85;;;;;;;6.56;73.82;94429.34;5079378;28;20640;-71
2023/12/13 08:59:53;;;;;;;22.73;20.52;;;;;;;6.59;73.39;94431.41;5079780;28;20273;-71
2023/12/13 09:02:20;;;;;;;23.52;21.23;;;;;;;6.63;73.58;94441.34;5097065;28;20242;-71
2023/12/13 09:04:47;;;;;;;22.63;20.52;;;;;;;6.68;73.58;94415.63;5079665;28;20198;-71
2023/12/13 09:07:14;;;;;;;23.05;21.05;;;;;;;6.71;73.03;94415.75;5096527;28;20299;-71
2023/12/13 09:09:42;;;;;;;24.05;21.85;;;;;;;6.75;72.73;94392.00;5079610;28;20200;-71
2023/12/13 09:12:09;;;;;;;23.90;21.42;;;;;;;6.80;72.69;94401.94;5079112;28;20197;-71
2023/12/13 09:14:38;;;;;;;25.00;22.50;;;;;;;6.92;72.55;94392.88;5095766;28;20228;-70
2023/12/13 09:17:05;;;;;;;24.08;21.80;;;;;;;7.03;72.52;94384.97;5096509;28;20204;-70
2023/12/13 09:19:32;;;;;;;25.70;23.00;;;;;;;7.15;72.62;94376.69;5095177;28;20588;-70
2023/12/13 09:22:03;;;;;;;25.77;23.27;;;;;;;7.32;72.31;94370.13;5095353;28;20254;-70
2023/12/13 09:24:30;;;;;;;25.88;23.58;;;;;;;7.54;72.28;94364.09;5079091;28;20253;-70
2023/12/13 09:26:58;;;;;;;26.25;23.55;;;;;;;7.90;71.54;94362.28;5095515;28;20655;-70
2023/12/13 09:29:25;;;;;;;24.42;21.92;;;;;;;8.33;70.49;94355.91;5095757;28;20193;-73
2023/12/13 09:31:54;;;;;;;28.40;25.42;;;;;;;8.84;68.93;94355.94;5078836;28;20245;-71
2023/12/13 09:34:22;;;;;;;28.75;25.85;;;;;;;9.19;66.81;94348.81;5079405;28;20196;-71
2023/12/13 09:36:49;;;;;;;30.48;27.02;;;;;;;9.46;66.41;94350.56;5095510;28;20204;-71
2023/12/13 09:39:16;;;;;;;32.40;29.20;;;;;;;9.38;65.04;94371.63;5078718;28;20201;-71
2023/12/13 09:41:51;;;;;;;33.63;30.23;;;;;;;9.25;65.45;94381.19;5078865;28;20192;-71
2023/12/13 09:44:19;;;;;;;34.10;30.80;;;;;;;9.14;65.66;94356.19;5078019;28;20628;-71
2023/12/13 09:46:46;;;;;;;26.60;23.75;;;;;;;9.11;65.37;94340.44;5078952;28;20223;-71
2023/12/13 09:49:15;;;;;;;27.70;25.05;;;;;;;9.28;65.02;94352.94;5078292;28;20204;-71
2023/12/13 09:51:44;;;;;;;31.67;28.27;;;;;;;9.39;64.46;94340.19;5095378;28;20313;-71
2023/12/13 09:54:12;;;;;;;29.35;26.23;;;;;;;9.48;64.03;94333.69;5078975;28;20257;-71
2023/12/13 09:56:39;;;;;;;23.77;21.27;;;;;;;9.43;63.81;94333.97;5094921;28;20592;-71
2023/12/13 09:59:06;;;;;;;21.45;19.35;;;;;;;9.47;63.51;94319.09;5095255;28;20211;-71
2023/12/13 10:01:33;;;;;;;20.00;17.67;;;;;;;9.44;62.97;94316.28;5078958;28;20189;-71
2023/12/13 10:04:00;;;;;;;19.13;17.13;;;;;;;9.29;62.71;94315.22;5078442;28;20254;-70
2023/12/13 10:06:30;;;;;;;20.05;17.95;;;;;;;9.26;63.36;94307.69;5077706;28;20257;-71
2023/12/13 10:08:58;;;;;;;21.45;16.58;;;;;;;9.17;63.27;94291.41;5078306;28;20206;-71
2023/12/13 10:11:25;;;;;;;19.60;17.58;;;;;;;9.02;63.62;94290.31;5078789;28;20216;-71
2023/12/13 10:13:52;;;;;;;22.42;20.08;;;;;;;8.90;64.43;94279.47;5077873;28;20281;-71
2023/12/13 10:16:19;;;;;;;21.33;19.17;;;;;;;8.78;64.39;94279.59;5092860;28;20277;-71
2023/12/13 10:18:48;;;;;;;22.33;20.13;;;;;;;8.74;64.63;94271.25;5077560;28;20616;-71
2023/12/13 10:21:15;;;;;;;21.23;18.85;;;;;;;8.62;64.81;94263.97;5095029;28;20204;-71
2023/12/13 10:23:45;;;;;;;22.27;19.73;;;;;;;8.49;65.15;94254.22;5094112;28;20216;-71
2023/12/13 10:26:13;;;;;;;22.48;20.23;;;;;;;8.36;65.72;94258.25;5077931;28;20257;-71
2023/12/13 10:28:40;;;;;;;22.17;19.85;;;;;;;8.39;65.78;94241.88;5078376;28;20216;-71
2023/12/13 10:31:07;;;;;;;20.88;18.83;;;;;;;8.41;65.90;94225.00;5094907;28;20259;-71
2023/12/13 10:33:34;;;;;;;20.85;18.88;;;;;;;8.34;65.71;94242.09;5095257;28;20198;-71
2023/12/13 10:36:02;;;;;;;21.35;19.35;;;;;;;8.35;65.97;94232.72;5095400;28;20181;-71
2023/12/13 10:38:31;;;;;;;22.13;19.42;;;;;;;8.27;66.10;94236.44;5077907;28;20200;-71
2023/12/13 10:41:01;;;;;;;23.27;20.95;;;;;;;8.23;66.39;94227.34;5094485;28;20196;-71
2023/12/13 10:43:28;;;;;;;28.15;25.27;;;;;;;8.19;66.85;94227.25;5078217;28;20230;-71
2023/12/13 10:46:00;;;;;;;24.67;22.13;;;;;;;8.11;67.28;94241.19;5078014;28;20250;-71
2023/12/13 10:48:31;;;;;;;26.27;23.52;;;;;;;8.16;67.29;94236.22;5095060;28;20236;-71
2023/12/13 10:50:59;;;;;;;23.23;21.00;;;;;;;8.24;66.93;94222.63;5078154;28;20245;-71
2023/12/13 10:53:26;;;;;;;26.40;23.58;;;;;;;8.31;67.20;94231.81;5095048;28;20210;-71
2023/12/13 10:55:53;;;;;;;25.45;22.77;;;;;;;8.32;67.24;94233.44;5077980;28;20261;-71
2023/12/13 10:58:22;;;;;;;25.08;22.60;;;;;;;8.36;67.13;94231.56;5077494;28;20249;-71
2023/12/13 11:00:49;;;;;;;28.38;25.38;;;;;;;8.44;67.21;94225.09;5094094;28;20204;-71
2023/12/13 11:03:22;;;;;;;29.45;26.25;;;;;;;8.52;66.60;94206.00;5077080;28;20696;-71
2023/12/13 11:05:50;;;;;;;26.80;24.15;;;;;;;8.55;66.63;94224.53;5094749;28;20219;-71
2023/12/13 11:08:19;;;;;;;24.02;21.63;;;;;;;8.57;66.95;94203.78;5094355;28;20552;-71
2023/12/13 11:11:02;;;;;;;24.33;20.95;;;;;;;8.62;67.30;94197.19;5094830;28;20203;-71
2023/12/13 11:13:31;;;;;;;22.17;19.98;;;;;;;8.67;67.20;94216.94;5077581;28;20216;-71
2023/12/13 11:15:59;;;;;;;20.17;18.17;;;;;;;8.70;66.89;94204.41;5093786;28;20236;-71
2023/12/13 11:18:26;;;;;;;19.70;17.65;;;;;;;8.79;66.91;94201.47;5093852;28;20196;-71
2023/12/13 11:20:55;;;;;;;18.67;16.17;;;;;;;8.77;66.57;94190.03;5094919;28;20200;-71
2023/12/13 11:23:25;;;;;;;17.42;15.50;;;;;;;8.76;67.08;94204.94;5094851;28;20211;-71
2023/12/13 11:25:52;;;;;;;18.42;16.20;;;;;;;8.77;67.18;94199.06;5077280;28;20208;-71
2023/12/13 11:28:24;;;;;;;17.42;15.75;;;;;;;8.78;67.09;94192.41;5077745;28;20216;-71